sensor_id;sensor_type;location;lat;lon;timestamp;temperature;humidity
80426;DHT22;69766;51.476;5.704;2024-03-02T00:02:47;9.00;99.90
80426;DHT22;69766;51.476;5.704;2024-03-02T00:08:34;9.20;99.90
80426;DHT22;69766;51.476;5.704;2024-03-02T00:14:11;9.20;99.90
80426;DHT22;69766;51.476;5.704;2024-03-02T00:16:51;9.10;99.90
80426;DHT22;69766;51.476;5.704;2024-03-02T00:19:34;9.20;99.90
80426;DHT22;69766;51.476;5.704;2024-03-02T00:22:29;9.20;99.90
80426;DHT22;69766;51.476;5.704;2024-03-02T00:25:13;9.20;99.90
80426;DHT22;69766;51.476;5.704;2024-03-02T00:28:04;9.30;99.90
80426;DHT22;69766;51.476;5.704;2024-03-02T00:33:49;9.40;99.90
80426;DHT22;69766;51.476;5.704;2024-03-02T00:36:56;9.40;99.90
80426;DHT22;69766;51.476;5.704;2024-03-02T01:03:56;8.10;99.90
80426;DHT22;69766;51.476;5.704;2024-03-02T01:18:05;7.80;99.90
80426;DHT22;69766;51.476;5.704;2024-03-02T01:21:03;7.80;99.90
80426;DHT22;69766;51.476;5.704;2024-03-02T01:30:15;7.80;99.90
80426;DHT22;69766;51.476;5.704;2024-03-02T01:33:01;7.80;99.90
80426;DHT22;69766;51.476;5.704;2024-03-02T01:35:44;7.80;99.90
80426;DHT22;69766;51.476;5.704;2024-03-02T01:38:47;7.70;99.90
80426;DHT22;69766;51.476;5.704;2024-03-02T01:41:36;7.70;99.90
80426;DHT22;69766;51.476;5.704;2024-03-02T01:44:20;7.70;99.90
80426;DHT22;69766;51.476;5.704;2024-03-02T01:46:47;7.70;99.90
80426;DHT22;69766;51.476;5.704;2024-03-02T01:49:34;7.70;99.90
80426;DHT22;69766;51.476;5.704;2024-03-02T01:52:25;7.60;99.90
80426;DHT22;69766;51.476;5.704;2024-03-02T01:56:07;7.70;99.90
80426;DHT22;69766;51.476;5.704;2024-03-02T01:58:36;7.60;99.90
80426;DHT22;69766;51.476;5.704;2024-03-02T02:04:58;7.60;99.90
80426;DHT22;69766;51.476;5.704;2024-03-02T02:10:44;7.60;99.90
80426;DHT22;69766;51.476;5.704;2024-03-02T02:17:05;7.50;99.90
80426;DHT22;69766;51.476;5.704;2024-03-02T02:23:13;7.40;99.90
80426;DHT22;69766;51.476;5.704;2024-03-02T02:26:09;7.50;99.90
80426;DHT22;69766;51.476;5.704;2024-03-02T02:29:22;7.40;99.90
80426;DHT22;69766;51.476;5.704;2024-03-02T02:35:20;7.40;99.90
80426;DHT22;69766;51.476;5.704;2024-03-02T02:38:11;7.40;99.90
80426;DHT22;69766;51.476;5.704;2024-03-02T02:41:20;7.30;99.90
80426;DHT22;69766;51.476;5.704;2024-03-02T02:44:16;7.40;99.90
80426;DHT22;69766;51.476;5.704;2024-03-02T02:53:08;7.50;99.90
80426;DHT22;69766;51.476;5.704;2024-03-02T02:55:54;7.40;99.90
80426;DHT22;69766;51.476;5.704;2024-03-02T02:58:35;7.40;99.90
80426;DHT22;69766;51.476;5.704;2024-03-02T03:07:30;7.40;99.90
80426;DHT22;69766;51.476;5.704;2024-03-02T03:10:17;7.40;99.90
80426;DHT22;69766;51.476;5.704;2024-03-02T03:13:13;7.40;99.90
80426;DHT22;69766;51.476;5.704;2024-03-02T03:15:55;7.40;99.90
80426;DHT22;69766;51.476;5.704;2024-03-02T03:18:49;7.40;99.90
80426;DHT22;69766;51.476;5.704;2024-03-02T03:21:28;7.40;99.90
80426;DHT22;69766;51.476;5.704;2024-03-02T03:24:05;7.50;99.90
80426;DHT22;69766;51.476;5.704;2024-03-02T03:26:58;7.40;99.90
80426;DHT22;69766;51.476;5.704;2024-03-02T03:29:29;7.40;99.90
80426;DHT22;69766;51.476;5.704;2024-03-02T03:32:26;7.40;99.90
80426;DHT22;69766;51.476;5.704;2024-03-02T03:37:49;7.40;99.90
80426;DHT22;69766;51.476;5.704;2024-03-02T03:40:59;7.30;99.90
80426;DHT22;69766;51.476;5.704;2024-03-02T03:44:04;7.30;99.90
80426;DHT22;69766;51.476;5.704;2024-03-02T03:55:41;7.40;99.90
80426;DHT22;69766;51.476;5.704;2024-03-02T03:58:36;7.40;99.90
80426;DHT22;69766;51.476;5.704;2024-03-02T04:01:26;7.30;99.90
80426;DHT22;69766;51.476;5.704;2024-03-02T04:08:08;7.30;99.90
80426;DHT22;69766;51.476;5.704;2024-03-02T04:11:08;7.20;99.90
80426;DHT22;69766;51.476;5.704;2024-03-02T04:13:41;7.20;99.90
80426;DHT22;69766;51.476;5.704;2024-03-02T04:16:22;7.20;99.90
80426;DHT22;69766;51.476;5.704;2024-03-02T04:32:43;7.00;99.90
80426;DHT22;69766;51.476;5.704;2024-03-02T04:35:37;6.90;99.90
80426;DHT22;69766;51.476;5.704;2024-03-02T04:38:36;6.80;99.90
80426;DHT22;69766;51.476;5.704;2024-03-02T04:45:06;6.70;99.90
80426;DHT22;69766;51.476;5.704;2024-03-02T04:51:10;6.70;99.90
80426;DHT22;69766;51.476;5.704;2024-03-02T04:54:10;6.80;99.90
80426;DHT22;69766;51.476;5.704;2024-03-02T04:56:49;6.60;99.90
80426;DHT22;69766;51.476;5.704;2024-03-02T04:59:41;6.70;99.90
80426;DHT22;69766;51.476;5.704;2024-03-02T05:02:24;6.60;99.90
80426;DHT22;69766;51.476;5.704;2024-03-02T05:05:16;6.60;99.90
80426;DHT22;69766;51.476;5.704;2024-03-02T05:08:11;6.60;99.90
80426;DHT22;69766;51.476;5.704;2024-03-02T05:14:36;6.60;99.90
80426;DHT22;69766;51.476;5.704;2024-03-02T05:17:12;6.70;99.90
80426;DHT22;69766;51.476;5.704;2024-03-02T05:23:12;6.70;99.90
80426;DHT22;69766;51.476;5.704;2024-03-02T05:26:36;6.70;99.90
80426;DHT22;69766;51.476;5.704;2024-03-02T05:32:39;6.50;99.90
80426;DHT22;69766;51.476;5.704;2024-03-02T05:35:51;6.50;99.90
80426;DHT22;69766;51.476;5.704;2024-03-02T05:38:34;6.50;99.90
80426;DHT22;69766;51.476;5.704;2024-03-02T05:41:08;6.30;99.90
80426;DHT22;69766;51.476;5.704;2024-03-02T05:43:51;6.30;99.90
80426;DHT22;69766;51.476;5.704;2024-03-02T05:46:59;6.30;99.90
80426;DHT22;69766;51.476;5.704;2024-03-02T05:49:46;6.30;99.90
80426;DHT22;69766;51.476;5.704;2024-03-02T06:01:40;6.50;99.90
80426;DHT22;69766;51.476;5.704;2024-03-02T06:04:55;6.50;99.90
80426;DHT22;69766;51.476;5.704;2024-03-02T06:07:41;6.50;99.90
80426;DHT22;69766;51.476;5.704;2024-03-02T06:22:16;6.40;99.90
80426;DHT22;69766;51.476;5.704;2024-03-02T06:25:09;6.50;99.90
80426;DHT22;69766;51.476;5.704;2024-03-02T06:27:58;6.40;99.90
80426;DHT22;69766;51.476;5.704;2024-03-02T06:30:39;6.20;99.90
80426;DHT22;69766;51.476;5.704;2024-03-02T06:47:09;6.00;99.90
80426;DHT22;69766;51.476;5.704;2024-03-02T06:50:02;5.90;99.90
80426;DHT22;69766;51.476;5.704;2024-03-02T07:13:25;6.50;99.90
80426;DHT22;69766;51.476;5.704;2024-03-02T07:19:32;6.60;99.90
80426;DHT22;69766;51.476;5.704;2024-03-02T07:29:30;7.30;99.90
80426;DHT22;69766;51.476;5.704;2024-03-02T07:35:46;7.90;99.90
80426;DHT22;69766;51.476;5.704;2024-03-02T07:48:31;8.30;99.90
80426;DHT22;69766;51.476;5.704;2024-03-02T07:58:26;8.60;99.90
80426;DHT22;69766;51.476;5.704;2024-03-02T08:01:25;8.70;99.90
80426;DHT22;69766;51.476;5.704;2024-03-02T08:07:16;8.50;99.90
80426;DHT22;69766;51.476;5.704;2024-03-02T08:16:42;8.50;99.90
80426;DHT22;69766;51.476;5.704;2024-03-02T08:26:02;8.70;99.90
80426;DHT22;69766;51.476;5.704;2024-03-02T08:32:34;8.70;99.90
80426;DHT22;69766;51.476;5.704;2024-03-02T08:35:07;9.00;99.90
80426;DHT22;69766;51.476;5.704;2024-03-02T08:37:42;9.20;99.90
80426;DHT22;69766;51.476;5.704;2024-03-02T08:43:34;9.70;99.90
80426;DHT22;69766;51.476;5.704;2024-03-02T08:46:06;10.40;99.90
80426;DHT22;69766;51.476;5.704;2024-03-02T08:48:50;11.10;99.90
80426;DHT22;69766;51.476;5.704;2024-03-02T08:51:20;11.80;99.90
80426;DHT22;69766;51.476;5.704;2024-03-02T08:57:14;11.00;99.90
80426;DHT22;69766;51.476;5.704;2024-03-02T08:59:42;10.50;99.90
80426;DHT22;69766;51.476;5.704;2024-03-02T09:02:29;10.60;99.90
80426;DHT22;69766;51.476;5.704;2024-03-02T09:08:14;10.90;99.90
80426;DHT22;69766;51.476;5.704;2024-03-02T09:10:56;11.00;99.90
80426;DHT22;69766;51.476;5.704;2024-03-02T09:13:47;11.00;99.90
80426;DHT22;69766;51.476;5.704;2024-03-02T09:20:08;11.60;99.90
80426;DHT22;69766;51.476;5.704;2024-03-02T09:22:53;11.60;99.90
80426;DHT22;69766;51.476;5.704;2024-03-02T09:25:27;11.40;99.90
80426;DHT22;69766;51.476;5.704;2024-03-02T09:28:00;11.80;99.90
80426;DHT22;69766;51.476;5.704;2024-03-02T09:30:39;12.30;99.90
80426;DHT22;69766;51.476;5.704;2024-03-02T09:33:12;12.50;99.90
80426;DHT22;69766;51.476;5.704;2024-03-02T09:36:01;12.10;99.90
80426;DHT22;69766;51.476;5.704;2024-03-02T09:38:51;12.00;99.90
80426;DHT22;69766;51.476;5.704;2024-03-02T09:41:52;11.90;99.90
80426;DHT22;69766;51.476;5.704;2024-03-02T09:44:27;12.70;99.90
80426;DHT22;69766;51.476;5.704;2024-03-02T09:47:30;12.40;99.90
80426;DHT22;69766;51.476;5.704;2024-03-02T09:49:59;12.20;99.90
80426;DHT22;69766;51.476;5.704;2024-03-02T09:52:30;12.90;99.90
80426;DHT22;69766;51.476;5.704;2024-03-02T09:55:20;12.90;99.90
80426;DHT22;69766;51.476;5.704;2024-03-02T09:58:02;12.90;99.90
80426;DHT22;69766;51.476;5.704;2024-03-02T10:00:50;13.40;99.90
80426;DHT22;69766;51.476;5.704;2024-03-02T10:03:42;13.70;99.90
80426;DHT22;69766;51.476;5.704;2024-03-02T10:06:47;13.40;99.90
80426;DHT22;69766;51.476;5.704;2024-03-02T10:09:30;13.10;99.90
80426;DHT22;69766;51.476;5.704;2024-03-02T10:12:21;13.30;99.90
80426;DHT22;69766;51.476;5.704;2024-03-02T10:15:05;13.70;99.90
80426;DHT22;69766;51.476;5.704;2024-03-02T10:18:01;13.80;99.90
80426;DHT22;69766;51.476;5.704;2024-03-02T10:20:34;14.10;99.60
80426;DHT22;69766;51.476;5.704;2024-03-02T10:26:22;15.00;92.40
80426;DHT22;69766;51.476;5.704;2024-03-02T10:29:24;14.00;94.90
80426;DHT22;69766;51.476;5.704;2024-03-02T10:35:22;13.90;98.30
80426;DHT22;69766;51.476;5.704;2024-03-02T10:38:06;13.50;99.50
80426;DHT22;69766;51.476;5.704;2024-03-02T10:40:55;13.20;99.50
80426;DHT22;69766;51.476;5.704;2024-03-02T10:43:35;12.60;99.90
80426;DHT22;69766;51.476;5.704;2024-03-02T10:46:27;12.20;99.90
80426;DHT22;69766;51.476;5.704;2024-03-02T10:49:28;11.90;99.90
80426;DHT22;69766;51.476;5.704;2024-03-02T10:52:10;11.90;99.90
80426;DHT22;69766;51.476;5.704;2024-03-02T10:54:51;12.20;99.90
80426;DHT22;69766;51.476;5.704;2024-03-02T10:57:27;12.50;99.90
80426;DHT22;69766;51.476;5.704;2024-03-02T11:00:17;12.80;99.90
80426;DHT22;69766;51.476;5.704;2024-03-02T11:06:35;14.60;91.00
80426;DHT22;69766;51.476;5.704;2024-03-02T11:09:27;14.70;89.60
80426;DHT22;69766;51.476;5.704;2024-03-02T11:15:04;13.70;94.30
80426;DHT22;69766;51.476;5.704;2024-03-02T11:17:55;13.30;97.10
80426;DHT22;69766;51.476;5.704;2024-03-02T11:20:36;13.20;97.40
80426;DHT22;69766;51.476;5.704;2024-03-02T11:23:18;13.10;97.40
80426;DHT22;69766;51.476;5.704;2024-03-02T11:26:27;12.90;99.90
80426;DHT22;69766;51.476;5.704;2024-03-02T11:35:26;13.50;97.10
80426;DHT22;69766;51.476;5.704;2024-03-02T11:38:13;13.30;97.30
80426;DHT22;69766;51.476;5.704;2024-03-02T11:41:25;13.10;97.60
80426;DHT22;69766;51.476;5.704;2024-03-02T11:44:20;12.80;98.40
80426;DHT22;69766;51.476;5.704;2024-03-02T11:47:08;12.90;99.90
80426;DHT22;69766;51.476;5.704;2024-03-02T11:49:47;13.40;98.30
80426;DHT22;69766;51.476;5.704;2024-03-02T11:55:52;14.00;96.10
80426;DHT22;69766;51.476;5.704;2024-03-02T11:58:48;13.40;96.80
80426;DHT22;69766;51.476;5.704;2024-03-02T12:01:38;13.40;98.30
80426;DHT22;69766;51.476;5.704;2024-03-02T12:07:14;13.50;97.10
80426;DHT22;69766;51.476;5.704;2024-03-02T12:10:07;13.70;95.20
80426;DHT22;69766;51.476;5.704;2024-03-02T12:16:28;14.00;96.40
80426;DHT22;69766;51.476;5.704;2024-03-02T12:19:16;14.40;91.30
80426;DHT22;69766;51.476;5.704;2024-03-02T12:22:00;14.80;91.30
80426;DHT22;69766;51.476;5.704;2024-03-02T12:24:41;15.10;84.40
80426;DHT22;69766;51.476;5.704;2024-03-02T12:27:27;14.70;87.70
80426;DHT22;69766;51.476;5.704;2024-03-02T12:30:07;15.30;83.50
80426;DHT22;69766;51.476;5.704;2024-03-02T12:33:04;16.30;78.60
80426;DHT22;69766;51.476;5.704;2024-03-02T12:35:51;16.70;74.40
80426;DHT22;69766;51.476;5.704;2024-03-02T12:38:32;16.50;72.80
80426;DHT22;69766;51.476;5.704;2024-03-02T12:41:15;17.50;69.70
80426;DHT22;69766;51.476;5.704;2024-03-02T12:44:11;17.80;67.20
80426;DHT22;69766;51.476;5.704;2024-03-02T12:46:53;19.00;63.00
80426;DHT22;69766;51.476;5.704;2024-03-02T12:49:49;18.60;63.80
80426;DHT22;69766;51.476;5.704;2024-03-02T12:52:40;19.20;62.60
80426;DHT22;69766;51.476;5.704;2024-03-02T12:55:41;20.10;58.90
80426;DHT22;69766;51.476;5.704;2024-03-02T12:58:38;19.40;60.10
80426;DHT22;69766;51.476;5.704;2024-03-02T13:01:23;18.40;61.30
80426;DHT22;69766;51.476;5.704;2024-03-02T13:04:12;17.70;61.40
80426;DHT22;69766;51.476;5.704;2024-03-02T13:07:22;16.90;64.60
80426;DHT22;69766;51.476;5.704;2024-03-02T13:09:57;16.40;68.80
80426;DHT22;69766;51.476;5.704;2024-03-02T13:16:02;16.30;67.90
80426;DHT22;69766;51.476;5.704;2024-03-02T13:22:11;18.20;63.00
80426;DHT22;69766;51.476;5.704;2024-03-02T13:24:48;18.60;62.00
80426;DHT22;69766;51.476;5.704;2024-03-02T13:27:53;19.70;59.30
80426;DHT22;69766;51.476;5.704;2024-03-02T13:30:42;19.60;57.90
80426;DHT22;69766;51.476;5.704;2024-03-02T13:33:21;19.20;59.10
80426;DHT22;69766;51.476;5.704;2024-03-02T13:35:56;19.70;56.70
80426;DHT22;69766;51.476;5.704;2024-03-02T13:42:21;21.70;56.60
80426;DHT22;69766;51.476;5.704;2024-03-02T13:44:54;23.10;52.00
80426;DHT22;69766;51.476;5.704;2024-03-02T13:47:53;22.90;51.50
80426;DHT22;69766;51.476;5.704;2024-03-02T13:50:33;20.90;54.20
80426;DHT22;69766;51.476;5.704;2024-03-02T13:53:06;19.20;56.00
80426;DHT22;69766;51.476;5.704;2024-03-02T13:55:41;17.70;59.20
80426;DHT22;69766;51.476;5.704;2024-03-02T13:58:20;16.90;61.40
80426;DHT22;69766;51.476;5.704;2024-03-02T14:01:16;16.10;64.10
80426;DHT22;69766;51.476;5.704;2024-03-02T14:04:00;17.20;62.80
80426;DHT22;69766;51.476;5.704;2024-03-02T14:06:36;19.30;58.30
80426;DHT22;69766;51.476;5.704;2024-03-02T14:09:14;20.40;56.10
80426;DHT22;69766;51.476;5.704;2024-03-02T14:12:20;18.50;58.30
80426;DHT22;69766;51.476;5.704;2024-03-02T14:15:12;17.90;61.10
80426;DHT22;69766;51.476;5.704;2024-03-02T14:17:52;17.60;59.90
80426;DHT22;69766;51.476;5.704;2024-03-02T14:20:23;17.90;60.60
80426;DHT22;69766;51.476;5.704;2024-03-02T14:23:08;19.10;60.20
80426;DHT22;69766;51.476;5.704;2024-03-02T14:25:45;20.30;56.10
80426;DHT22;69766;51.476;5.704;2024-03-02T14:28:12;20.80;55.60
80426;DHT22;69766;51.476;5.704;2024-03-02T14:30:44;20.30;55.40
80426;DHT22;69766;51.476;5.704;2024-03-02T14:33:20;21.00;54.40
80426;DHT22;69766;51.476;5.704;2024-03-02T14:36:11;20.50;53.80
80426;DHT22;69766;51.476;5.704;2024-03-02T14:39:00;19.00;57.90
80426;DHT22;69766;51.476;5.704;2024-03-02T14:41:45;17.40;63.30
80426;DHT22;69766;51.476;5.704;2024-03-02T14:44:31;16.80;63.90
80426;DHT22;69766;51.476;5.704;2024-03-02T14:47:15;16.00;67.60
80426;DHT22;69766;51.476;5.704;2024-03-02T14:50:22;16.40;68.30
80426;DHT22;69766;51.476;5.704;2024-03-02T14:53:15;16.00;67.40
80426;DHT22;69766;51.476;5.704;2024-03-02T14:56:00;15.30;68.70
80426;DHT22;69766;51.476;5.704;2024-03-02T14:58:41;15.00;72.20
80426;DHT22;69766;51.476;5.704;2024-03-02T15:01:15;15.00;72.80
80426;DHT22;69766;51.476;5.704;2024-03-02T15:07:57;15.90;71.80
80426;DHT22;69766;51.476;5.704;2024-03-02T15:10:44;16.00;71.40
80426;DHT22;69766;51.476;5.704;2024-03-02T15:13:44;15.80;74.90
80426;DHT22;69766;51.476;5.704;2024-03-02T15:16:32;15.20;76.80
80426;DHT22;69766;51.476;5.704;2024-03-02T15:19:08;15.00;80.40
80426;DHT22;69766;51.476;5.704;2024-03-02T15:21:52;15.60;77.60
80426;DHT22;69766;51.476;5.704;2024-03-02T15:28:05;15.00;82.90
80426;DHT22;69766;51.476;5.704;2024-03-02T15:31:10;16.00;75.60
80426;DHT22;69766;51.476;5.704;2024-03-02T15:36:54;16.70;70.50
80426;DHT22;69766;51.476;5.704;2024-03-02T15:39:37;16.20;73.30
80426;DHT22;69766;51.476;5.704;2024-03-02T15:42:21;16.30;74.50
80426;DHT22;69766;51.476;5.704;2024-03-02T15:44:53;16.60;72.10
80426;DHT22;69766;51.476;5.704;2024-03-02T15:47:28;16.30;73.90
80426;DHT22;69766;51.476;5.704;2024-03-02T15:50:10;16.20;72.80
80426;DHT22;69766;51.476;5.704;2024-03-02T15:52:47;16.50;71.50
80426;DHT22;69766;51.476;5.704;2024-03-02T15:55:31;16.30;74.00
80426;DHT22;69766;51.476;5.704;2024-03-02T15:58:01;15.70;74.30
80426;DHT22;69766;51.476;5.704;2024-03-02T16:00:31;15.20;78.00
80426;DHT22;69766;51.476;5.704;2024-03-02T16:02:57;14.60;85.10
80426;DHT22;69766;51.476;5.704;2024-03-02T16:05:23;14.40;93.60
80426;DHT22;69766;51.476;5.704;2024-03-02T16:07:49;14.10;96.80
80426;DHT22;69766;51.476;5.704;2024-03-02T16:10:18;14.00;97.00
80426;DHT22;69766;51.476;5.704;2024-03-02T16:12:44;13.90;98.50
80426;DHT22;69766;51.476;5.704;2024-03-02T16:15:13;13.80;99.00
80426;DHT22;69766;51.476;5.704;2024-03-02T16:17:39;13.70;99.90
80426;DHT22;69766;51.476;5.704;2024-03-02T16:23:16;13.40;99.90
80426;DHT22;69766;51.476;5.704;2024-03-02T16:25:42;13.40;99.90
80426;DHT22;69766;51.476;5.704;2024-03-02T16:31:33;13.30;99.90
80426;DHT22;69766;51.476;5.704;2024-03-02T16:34:46;13.20;99.90
80426;DHT22;69766;51.476;5.704;2024-03-02T16:43:42;12.80;99.90
80426;DHT22;69766;51.476;5.704;2024-03-02T16:46:11;12.80;99.90
80426;DHT22;69766;51.476;5.704;2024-03-02T16:48:37;12.70;99.90
80426;DHT22;69766;51.476;5.704;2024-03-02T16:51:06;12.60;99.90
80426;DHT22;69766;51.476;5.704;2024-03-02T16:53:33;12.60;99.90
80426;DHT22;69766;51.476;5.704;2024-03-02T16:56:02;12.50;99.90
80426;DHT22;69766;51.476;5.704;2024-03-02T16:58:29;12.50;99.90
80426;DHT22;69766;51.476;5.704;2024-03-02T17:00:54;12.50;99.90
80426;DHT22;69766;51.476;5.704;2024-03-02T17:03:20;12.50;99.90
80426;DHT22;69766;51.476;5.704;2024-03-02T17:05:46;12.50;99.90
80426;DHT22;69766;51.476;5.704;2024-03-02T17:08:12;12.60;99.90
80426;DHT22;69766;51.476;5.704;2024-03-02T17:10:38;12.60;99.90
80426;DHT22;69766;51.476;5.704;2024-03-02T17:13:05;12.60;99.90
80426;DHT22;69766;51.476;5.704;2024-03-02T17:15:34;12.50;99.90
80426;DHT22;69766;51.476;5.704;2024-03-02T17:18:00;12.50;99.90
80426;DHT22;69766;51.476;5.704;2024-03-02T17:20:26;12.30;99.90
80426;DHT22;69766;51.476;5.704;2024-03-02T17:22:53;12.10;99.90
80426;DHT22;69766;51.476;5.704;2024-03-02T17:25:20;12.00;99.90
80426;DHT22;69766;51.476;5.704;2024-03-02T17:27:49;11.90;99.90
80426;DHT22;69766;51.476;5.704;2024-03-02T17:30:15;11.80;99.90
80426;DHT22;69766;51.476;5.704;2024-03-02T17:32:41;11.80;99.90
80426;DHT22;69766;51.476;5.704;2024-03-02T17:35:07;11.90;99.90
80426;DHT22;69766;51.476;5.704;2024-03-02T17:37:33;11.80;99.90
80426;DHT22;69766;51.476;5.704;2024-03-02T17:40:01;11.90;99.90
80426;DHT22;69766;51.476;5.704;2024-03-02T17:42:26;12.00;99.90
80426;DHT22;69766;51.476;5.704;2024-03-02T17:44:54;12.00;99.90
80426;DHT22;69766;51.476;5.704;2024-03-02T17:47:20;12.10;99.90
80426;DHT22;69766;51.476;5.704;2024-03-02T17:49:46;12.00;99.90
80426;DHT22;69766;51.476;5.704;2024-03-02T17:52:17;12.00;99.90
80426;DHT22;69766;51.476;5.704;2024-03-02T17:54:44;12.10;99.90
80426;DHT22;69766;51.476;5.704;2024-03-02T17:57:09;12.10;99.90
80426;DHT22;69766;51.476;5.704;2024-03-02T17:59:35;12.10;99.90
80426;DHT22;69766;51.476;5.704;2024-03-02T18:02:03;12.00;99.90
80426;DHT22;69766;51.476;5.704;2024-03-02T18:04:28;12.10;99.90
80426;DHT22;69766;51.476;5.704;2024-03-02T18:06:54;12.20;99.90
80426;DHT22;69766;51.476;5.704;2024-03-02T18:09:23;12.10;99.90
80426;DHT22;69766;51.476;5.704;2024-03-02T18:11:52;12.20;99.90
80426;DHT22;69766;51.476;5.704;2024-03-02T18:14:20;12.10;99.90
80426;DHT22;69766;51.476;5.704;2024-03-02T18:16:46;12.20;99.90
80426;DHT22;69766;51.476;5.704;2024-03-02T18:19:13;12.30;99.90
80426;DHT22;69766;51.476;5.704;2024-03-02T18:21:38;12.30;99.90
80426;DHT22;69766;51.476;5.704;2024-03-02T18:24:04;12.20;99.90
80426;DHT22;69766;51.476;5.704;2024-03-02T18:26:30;12.20;99.90
80426;DHT22;69766;51.476;5.704;2024-03-02T18:28:58;12.20;99.90
80426;DHT22;69766;51.476;5.704;2024-03-02T18:31:24;12.20;99.90
80426;DHT22;69766;51.476;5.704;2024-03-02T18:33:50;12.30;99.90
80426;DHT22;69766;51.476;5.704;2024-03-02T18:36:16;12.30;99.90
80426;DHT22;69766;51.476;5.704;2024-03-02T18:38:42;12.30;99.90
80426;DHT22;69766;51.476;5.704;2024-03-02T18:41:08;12.20;99.90
80426;DHT22;69766;51.476;5.704;2024-03-02T18:43:33;12.30;99.90
80426;DHT22;69766;51.476;5.704;2024-03-02T18:46:02;12.20;99.90
80426;DHT22;69766;51.476;5.704;2024-03-02T18:48:28;12.30;99.90
80426;DHT22;69766;51.476;5.704;2024-03-02T18:50:54;12.30;99.90
80426;DHT22;69766;51.476;5.704;2024-03-02T18:53:21;12.30;99.90
80426;DHT22;69766;51.476;5.704;2024-03-02T18:55:55;12.30;99.90
80426;DHT22;69766;51.476;5.704;2024-03-02T18:58:23;12.20;99.90
80426;DHT22;69766;51.476;5.704;2024-03-02T19:00:50;12.20;99.90
80426;DHT22;69766;51.476;5.704;2024-03-02T19:03:16;12.30;99.90
80426;DHT22;69766;51.476;5.704;2024-03-02T19:05:42;12.30;99.90
80426;DHT22;69766;51.476;5.704;2024-03-02T19:08:07;12.30;99.90
80426;DHT22;69766;51.476;5.704;2024-03-02T19:10:33;12.30;99.90
80426;DHT22;69766;51.476;5.704;2024-03-02T19:12:59;12.30;99.90
80426;DHT22;69766;51.476;5.704;2024-03-02T19:15:25;12.40;99.90
80426;DHT22;69766;51.476;5.704;2024-03-02T19:17:51;12.30;99.90
80426;DHT22;69766;51.476;5.704;2024-03-02T19:20:17;12.40;99.90
80426;DHT22;69766;51.476;5.704;2024-03-02T19:22:43;12.50;99.90
80426;DHT22;69766;51.476;5.704;2024-03-02T19:25:10;12.30;99.90
80426;DHT22;69766;51.476;5.704;2024-03-02T19:27:36;12.20;99.90
80426;DHT22;69766;51.476;5.704;2024-03-02T19:30:06;12.10;99.90
80426;DHT22;69766;51.476;5.704;2024-03-02T19:32:35;11.90;99.90
80426;DHT22;69766;51.476;5.704;2024-03-02T19:35:04;11.80;99.90
80426;DHT22;69766;51.476;5.704;2024-03-02T19:37:33;11.80;99.90
80426;DHT22;69766;51.476;5.704;2024-03-02T19:40:04;11.70;99.90
80426;DHT22;69766;51.476;5.704;2024-03-02T19:42:30;11.80;99.90
80426;DHT22;69766;51.476;5.704;2024-03-02T19:44:57;11.80;99.90
80426;DHT22;69766;51.476;5.704;2024-03-02T19:47:22;11.80;99.90
80426;DHT22;69766;51.476;5.704;2024-03-02T19:49:49;11.60;99.90
80426;DHT22;69766;51.476;5.704;2024-03-02T19:52:17;11.60;99.90
80426;DHT22;69766;51.476;5.704;2024-03-02T19:54:43;11.50;99.90
80426;DHT22;69766;51.476;5.704;2024-03-02T19:57:09;11.50;99.90
80426;DHT22;69766;51.476;5.704;2024-03-02T19:59:35;11.60;99.90
80426;DHT22;69766;51.476;5.704;2024-03-02T20:02:00;11.60;99.90
80426;DHT22;69766;51.476;5.704;2024-03-02T20:04:27;11.60;99.90
80426;DHT22;69766;51.476;5.704;2024-03-02T20:06:55;11.60;99.90
80426;DHT22;69766;51.476;5.704;2024-03-02T20:09:21;11.60;99.90
80426;DHT22;69766;51.476;5.704;2024-03-02T20:11:47;11.50;99.90
80426;DHT22;69766;51.476;5.704;2024-03-02T20:14:16;11.40;99.90
80426;DHT22;69766;51.476;5.704;2024-03-02T20:16:45;11.40;99.90
80426;DHT22;69766;51.476;5.704;2024-03-02T20:19:11;11.30;99.90
80426;DHT22;69766;51.476;5.704;2024-03-02T20:21:37;11.20;99.90
80426;DHT22;69766;51.476;5.704;2024-03-02T20:24:03;11.10;99.90
80426;DHT22;69766;51.476;5.704;2024-03-02T20:26:31;11.20;99.90
80426;DHT22;69766;51.476;5.704;2024-03-02T20:28:57;11.20;99.90
80426;DHT22;69766;51.476;5.704;2024-03-02T20:31:37;11.10;99.90
80426;DHT22;69766;51.476;5.704;2024-03-02T20:34:14;11.20;99.90
80426;DHT22;69766;51.476;5.704;2024-03-02T20:36:43;11.20;99.90
80426;DHT22;69766;51.476;5.704;2024-03-02T20:39:23;11.10;99.90
80426;DHT22;69766;51.476;5.704;2024-03-02T20:41:52;11.10;99.90
80426;DHT22;69766;51.476;5.704;2024-03-02T20:44:18;11.20;99.90
80426;DHT22;69766;51.476;5.704;2024-03-02T20:46:47;11.30;99.90
80426;DHT22;69766;51.476;5.704;2024-03-02T20:49:13;11.40;99.90
80426;DHT22;69766;51.476;5.704;2024-03-02T20:51:39;11.40;99.90
80426;DHT22;69766;51.476;5.704;2024-03-02T20:54:05;11.20;99.90
80426;DHT22;69766;51.476;5.704;2024-03-02T20:56:34;11.20;99.90
80426;DHT22;69766;51.476;5.704;2024-03-02T20:59:10;11.10;99.90
80426;DHT22;69766;51.476;5.704;2024-03-02T21:01:47;11.00;99.90
80426;DHT22;69766;51.476;5.704;2024-03-02T21:04:16;11.00;99.90
80426;DHT22;69766;51.476;5.704;2024-03-02T21:06:44;10.90;99.90
80426;DHT22;69766;51.476;5.704;2024-03-02T21:09:11;11.00;99.90
80426;DHT22;69766;51.476;5.704;2024-03-02T21:11:40;11.10;99.90
80426;DHT22;69766;51.476;5.704;2024-03-02T21:14:11;11.10;99.90
80426;DHT22;69766;51.476;5.704;2024-03-02T21:16:49;10.90;99.90
80426;DHT22;69766;51.476;5.704;2024-03-02T21:19:16;11.20;99.90
80426;DHT22;69766;51.476;5.704;2024-03-02T21:21:46;11.10;99.90
80426;DHT22;69766;51.476;5.704;2024-03-02T21:24:11;11.10;99.90
80426;DHT22;69766;51.476;5.704;2024-03-02T21:26:38;11.00;99.90
80426;DHT22;69766;51.476;5.704;2024-03-02T21:29:04;11.00;99.90
80426;DHT22;69766;51.476;5.704;2024-03-02T21:31:30;10.90;99.90
80426;DHT22;69766;51.476;5.704;2024-03-02T21:33:59;11.00;99.90
80426;DHT22;69766;51.476;5.704;2024-03-02T21:36:28;11.00;99.90
80426;DHT22;69766;51.476;5.704;2024-03-02T21:38:54;10.90;99.90
80426;DHT22;69766;51.476;5.704;2024-03-02T21:41:20;10.90;99.90
80426;DHT22;69766;51.476;5.704;2024-03-02T21:43:45;10.80;99.90
80426;DHT22;69766;51.476;5.704;2024-03-02T21:46:16;10.90;99.90
80426;DHT22;69766;51.476;5.704;2024-03-02T21:48:59;10.90;99.90
80426;DHT22;69766;51.476;5.704;2024-03-02T21:51:24;10.80;99.90
80426;DHT22;69766;51.476;5.704;2024-03-02T21:53:53;10.90;99.90
80426;DHT22;69766;51.476;5.704;2024-03-02T21:56:20;10.80;99.90
80426;DHT22;69766;51.476;5.704;2024-03-02T21:58:45;10.80;99.90
80426;DHT22;69766;51.476;5.704;2024-03-02T22:01:11;10.80;99.90
80426;DHT22;69766;51.476;5.704;2024-03-02T22:03:40;10.70;99.90